Dayton, Nevada
Current Conditions -  °F | °C
As of 8:35 PM on Saturday 22 Nov 2014 (Local Time) from KCXP Reporting Station
Clear Clear  
Wind Chill: 36°   Ceiling: Unl
Heat Index: 39°   Visibility: 10mi
Dew Point: 25°   Wind: 5mph
Humidity: 56%   Direction: 340°NNW
Pressure: 30.2"   Gusts: NA
Location:  39.24°N, 119.6°W
Report Text: KCXP 230435Z AUTO 34004KT 10SM CLR 04/M04 A3020 RMK AO2
Loading
Personal Weather Stations






























Interactive Weather Map New forecast layout! Learn more

10-Day Weather Forecast

Advertisements
Track Severe Weather on mobile